Seremban, Malaysia
Current Conditions -  °F | °C
As of 9:30 PM on Friday 31 Oct 2014 (Local Time) from WMKK Reporting Station
Broken Clouds Broken Clouds  
Wind Chill: 81°   Ceiling: 28000
Heat Index: 87°   Visibility: 6mi
Dew Point: 77°   Wind: 2mph
Humidity: 89%   Direction: 350°N
Pressure: 29.8"   Gusts: NA
Location:  2.71°N, 101.95°E
Report Text: WMKK 311330Z 35002KT 9999 FEW017CB SCT140 BKN280 27/25 Q1009 NOSIG
Loading
Personal Weather Stations






























Interactive Weather Map
Tropical Storm Tracking
New forecast layout! Learn more

10-Day Weather Forecast

Advertisements
Track Severe Weather on mobile